首页
METAR-TAF:

METAR-TAF

机场 :

傑洛頓-格林諾夫, 澳大利亚

纬度: 28-47-46S, 经度: 114-42-27E, 海拔: 37米

当前天气观测

该预报发布于26分钟前的01:30 UTC
风速7节,风向北转东北
温度 16°C
湿度 82%
气压 1027 hPa
能见度10公里或以上
多云层高于2900英尺
阴天层高于3400英尺

METAR: YGEL 310130Z AUTO 03007KT 9999 // BKN029 OVC034 16/13 Q1027

时间: 09:56 (01:56 UTC)

预报

该预报发布于2小时和57分钟前的22:59 UTC
预报有效从31日的 00点(UTC)到 31日的 18点(UTC)
风速5节,风向北转东北
能见度10公里或以上
少量云层高于2500英尺
散云层高于4000英尺
小阵雨
从 31日的 0400点(UTC)
风速10节,风向
能见度10公里或以上
散云层高于3500英尺
从 31日的 1200点(UTC)
风速8节,风向东南
能见度10公里或以上
1500米以下无云,无积雨云

TAF: YGEL 302259Z 3100/3118 03005KT 9999 -SHRA FEW025 SCT040 FM310400 19010KT 9999 NSW SCT035 FM311200 14008KT CAVOK

超过4000个机场的气象观测和天气预报(METAR&TAF报告)。

可查询的气象台以黄色和红色小点在地图上表示。

将鼠标移到小点上方,可查看气象台名称。

然后点击查看天气观测和预报。

如需切换地图:点击带黑十字的绿色按钮放大地图;点击带横线的绿色按钮缩小地图;或者点击绿色箭头查看邻近地区的地图。


METAR-TAF: